Fort Thomas, Arizona
Current Conditions -  °F | °C
As of 7:51 AM on Tuesday 21 Oct 2014 (Local Time) from KSAD Reporting Station
Clear Clear  
Wind Chill: 62°   Ceiling: Unl
Heat Index: 62°   Visibility: 10mi
Dew Point: 51°   Wind: 9mph
Humidity: 67%   Direction: 100°E
Pressure: 30.04"   Gusts: NA
Location:  33.04°N, 109.96°W
Report Text: KSAD 211451Z AUTO 10008KT 10SM CLR 17/11 A3004 RMK AO2 SLP140 T01670106 53010
Loading
Personal Weather Stations






























Interactive Weather Map
Tropical Storm Tracking
New forecast layout! Learn more

10-Day Weather Forecast

Advertisements
Track Severe Weather on mobile